Time;durP1;ratioP1;P1;durP2;ratioP2;P2;SDS_P1;SDS_P2;PMS_P1;PMS_P2;Temp;Humidity;BMP_temperature;BMP_pressure;BME280_temperature;BME280_humidity;BME280_pressure;Samples;Min_cycle;Max_cycle;Signal;HPM_P1;HPM_P2
2023/03/03 00:00:36;;;;;;;13.93;12.55;;;19.60;49.20;;;;;;5034881;28;20365;-69
2023/03/03 00:03:07;;;;;;;14.63;13.23;;;19.60;49.20;;;;;;5052956;28;20182;-69
2023/03/03 00:05:34;;;;;;;14.45;12.95;;;19.60;49.20;;;;;;5062624;28;20218;-70
2023/03/03 00:08:01;;;;;;;14.93;13.35;;;19.60;49.20;;;;;;5052410;28;20186;-69
2023/03/03 00:10:27;;;;;;;14.27;12.88;;;19.60;49.20;;;;;;5046785;28;20206;-69
2023/03/03 00:12:53;;;;;;;14.52;13.02;;;19.60;49.20;;;;;;5052538;28;20639;-70
2023/03/03 00:15:23;;;;;;;14.07;12.68;;;19.60;49.20;;;;;;5069193;28;20194;-69
2023/03/03 00:17:50;;;;;;;14.05;12.65;;;19.60;49.20;;;;;;5052276;28;20210;-70
2023/03/03 00:20:38;;;;;;;14.98;13.48;;;19.60;49.30;;;;;;5052468;28;20206;-70
2023/03/03 00:23:36;;;;;;;13.40;12.00;;;19.60;49.20;;;;;;5052491;28;20183;-70
2023/03/03 00:26:35;;;;;;;13.73;12.43;;;19.60;49.20;;;;;;5041890;28;20182;-70
2023/03/03 00:29:34;;;;;;;13.43;12.15;;;19.60;49.20;;;;;;5059296;28;20210;-69
2023/03/03 00:32:16;;;;;;;14.07;12.75;;;19.60;49.20;;;;;;5068947;28;20207;-69
2023/03/03 00:34:43;;;;;;;13.50;12.20;;;19.60;49.30;;;;;;5068771;28;20182;-70
2023/03/03 00:37:39;;;;;;;12.38;11.27;;;19.60;49.30;;;;;;5051947;28;20183;-70
2023/03/03 00:40:46;;;;;;;13.00;11.70;;;19.60;49.30;;;;;;5042073;28;20225;-70
2023/03/03 00:43:30;;;;;;;13.07;11.77;;;19.60;49.30;;;;;;5007371;28;20340;-71
2023/03/03 00:45:57;;;;;;;13.15;11.80;;;19.60;49.30;;;;;;5048592;28;20274;-69
2023/03/03 00:48:39;;;;;;;13.13;11.77;;;19.60;49.30;;;;;;5035161;28;20273;-70
2023/03/03 00:51:33;;;;;;;13.05;11.75;;;19.60;49.30;;;;;;5048662;28;20203;-70
2023/03/03 00:53:59;;;;;;;12.82;11.63;;;19.50;49.20;;;;;;5028583;28;20269;-69
2023/03/03 00:56:26;;;;;;;12.18;10.95;;;19.60;49.20;;;;;;5047782;28;20211;-70
2023/03/03 00:58:52;;;;;;;12.73;11.43;;;19.60;49.20;;;;;;5068494;28;20213;-69
2023/03/03 01:01:20;;;;;;;13.45;12.15;;;19.60;49.30;;;;;;5047822;28;20214;-70
2023/03/03 01:03:50;;;;;;;12.65;11.38;;;19.60;49.30;;;;;;5041855;28;20721;-70
2023/03/03 01:06:16;;;;;;;12.45;11.25;;;19.60;49.20;;;;;;5051062;28;20281;-70
2023/03/03 01:08:42;;;;;;;12.48;11.27;;;19.60;49.20;;;;;;5067935;28;20206;-70
2023/03/03 01:11:28;;;;;;;12.32;11.18;;;19.60;49.30;;;;;;5034927;28;20243;-70
2023/03/03 01:13:55;;;;;;;12.18;10.90;;;19.60;49.20;;;;;;5051118;28;20650;-70
2023/03/03 01:16:21;;;;;;;11.98;10.77;;;19.60;49.20;;;;;;5067923;28;20186;-69
2023/03/03 01:18:46;;;;;;;13.25;11.95;;;19.60;49.20;;;;;;5043074;28;20252;-70
2023/03/03 01:21:12;;;;;;;12.35;11.15;;;19.60;49.20;;;;;;5051431;28;20281;-69
2023/03/03 01:23:38;;;;;;;12.27;11.15;;;19.60;49.90;;;;;;5051272;28;20198;-69
2023/03/03 01:26:05;;;;;;;13.07;11.77;;;19.60;49.20;;;;;;5055809;28;20284;-69
2023/03/03 01:28:32;;;;;;;12.02;10.82;;;19.60;49.20;;;;;;5057738;28;20190;-70
2023/03/03 01:31:04;;;;;;;11.27;10.18;;;19.60;49.20;;;;;;5034472;28;20360;-70
2023/03/03 01:33:32;;;;;;;11.73;10.52;;;19.60;49.20;;;;;;5053938;28;20576;-69
2023/03/03 01:35:58;;;;;;;12.13;10.98;;;19.60;49.30;;;;;;5051089;28;20183;-70
2023/03/03 01:38:23;;;;;;;11.35;10.13;;;19.50;49.20;;;;;;5050930;28;20229;-70
2023/03/03 01:40:58;;;;;;;10.75;9.75;;;19.60;49.30;;;;;;5034157;28;20217;-69
2023/03/03 01:43:32;;;;;;;12.38;11.18;;;19.50;49.20;;;;;;5050985;28;20192;-70
2023/03/03 01:45:58;;;;;;;10.93;9.82;;;19.60;49.20;;;;;;5060045;28;20193;-70
2023/03/03 01:48:44;;;;;;;11.90;10.77;;;19.60;49.20;;;;;;5050957;28;20194;-69
2023/03/03 01:51:28;;;;;;;12.10;10.85;;;19.50;49.20;;;;;;5050887;28;20217;-69
2023/03/03 01:53:59;;;;;;;10.85;9.85;;;19.60;49.30;;;;;;5039147;28;20259;-70
2023/03/03 01:56:26;;;;;;;11.98;10.88;;;19.60;49.30;;;;;;5046937;28;20273;-70
2023/03/03 01:59:17;;;;;;;11.80;10.70;;;19.50;49.20;;;;;;5067203;28;20248;-70
2023/03/03 02:01:45;;;;;;;11.07;10.07;;;19.60;49.20;;;;;;5042330;28;20187;-70
2023/03/03 02:04:11;;;;;;;11.02;9.93;;;19.50;49.20;;;;;;5050529;28;20197;-70
2023/03/03 02:06:44;;;;;;;11.15;10.02;;;19.60;49.30;;;;;;5033239;28;20186;-70
2023/03/03 02:09:39;;;;;;;12.30;10.43;;;19.50;49.20;;;;;;5056439;28;20210;-69
2023/03/03 02:12:10;;;;;;;11.90;10.70;;;19.60;49.20;;;;;;5050259;28;20218;-69
2023/03/03 02:14:36;;;;;;;11.25;10.15;;;19.60;49.80;;;;;;5050426;28;20716;-69
2023/03/03 02:17:02;;;;;;;11.90;10.55;;;19.60;49.20;;;;;;5033665;28;20182;-69
2023/03/03 02:20:13;;;;;;;11.57;10.48;;;19.60;49.20;;;;;;5067552;28;20221;-69
2023/03/03 02:22:52;;;;;;;10.98;9.90;;;19.50;49.20;;;;;;5066822;28;20190;-70
2023/03/03 02:25:40;;;;;;;10.48;9.45;;;19.60;49.20;;;;;;5058370;28;20186;-69
2023/03/03 02:28:06;;;;;;;11.00;9.90;;;19.60;49.20;;;;;;5050296;28;20282;-69
2023/03/03 02:30:38;;;;;;;11.00;9.68;;;19.60;49.20;;;;;;5066800;28;20230;-69
2023/03/03 02:33:06;;;;;;;11.10;10.00;;;19.60;49.20;;;;;;5049920;28;20179;-70
2023/03/03 02:35:39;;;;;;;11.18;10.13;;;19.60;49.20;;;;;;5049881;28;20595;-69
2023/03/03 02:38:20;;;;;;;11.73;10.57;;;19.60;49.20;;;;;;5042111;28;20240;-69
2023/03/03 02:41:52;;;;;;;10.95;9.85;;;19.60;49.20;;;;;;5058746;28;20198;-70
2023/03/03 02:44:29;;;;;;;10.15;9.25;;;19.50;49.20;;;;;;5041832;28;20198;-69
2023/03/03 02:46:56;;;;;;;10.55;9.50;;;19.50;49.10;;;;;;5049984;28;20277;-69
2023/03/03 02:49:30;;;;;;;9.68;8.77;;;19.60;49.80;;;;;;5066712;28;20639;-69
2023/03/03 02:51:58;;;;;;;11.10;10.00;;;19.60;49.20;;;;;;5050096;28;20205;-70
2023/03/03 02:54:29;;;;;;;11.23;10.15;;;19.60;49.20;;;;;;5050387;28;20209;-70
2023/03/03 02:56:55;;;;;;;10.80;9.80;;;19.60;49.20;;;;;;5033293;28;20179;-70
2023/03/03 02:59:21;;;;;;;11.50;10.30;;;19.60;49.20;;;;;;5061229;28;20216;-69
2023/03/03 03:01:50;;;;;;;11.27;10.27;;;19.60;49.20;;;;;;5034523;28;20194;-69
2023/03/03 03:04:23;;;;;;;10.35;9.45;;;19.50;49.10;;;;;;5046483;28;20198;-70
2023/03/03 03:06:51;;;;;;;10.25;9.35;;;19.60;49.20;;;;;;5065375;28;20187;-70
2023/03/03 03:09:20;;;;;;;11.23;10.13;;;19.60;49.20;;;;;;5066544;28;20206;-69
2023/03/03 03:11:48;;;;;;;10.40;9.40;;;19.60;49.20;;;;;;5033740;28;20202;-70
2023/03/03 03:14:17;;;;;;;10.13;9.18;;;19.50;49.10;;;;;;5049748;28;20193;-70
2023/03/03 03:16:43;;;;;;;9.98;9.07;;;19.60;49.80;;;;;;5064548;28;20201;-69
2023/03/03 03:19:10;;;;;;;10.10;9.18;;;19.60;49.20;;;;;;5035469;28;20215;-69
2023/03/03 03:21:37;;;;;;;11.02;9.93;;;19.60;49.20;;;;;;5069934;28;20182;-69
2023/03/03 03:24:05;;;;;;;10.63;9.63;;;19.60;49.20;;;;;;5070035;28;20183;-70
2023/03/03 03:26:32;;;;;;;10.00;9.05;;;19.60;49.20;;;;;;5053384;28;20653;-69
2023/03/03 03:28:58;;;;;;;10.63;9.35;;;19.60;49.20;;;;;;5033455;28;20257;-70
2023/03/03 03:31:24;;;;;;;10.27;9.27;;;19.60;49.20;;;;;;5050177;28;20293;-69
2023/03/03 03:33:51;;;;;;;10.48;9.48;;;19.60;49.20;;;;;;5052416;28;20182;-70
2023/03/03 03:36:19;;;;;;;10.18;9.18;;;19.60;49.20;;;;;;5033464;28;20183;-70
2023/03/03 03:38:44;;;;;;;10.15;9.15;;;19.60;49.20;;;;;;5067706;28;20221;-70
2023/03/03 03:41:12;;;;;;;10.85;9.85;;;19.60;49.20;;;;;;5070143;28;20763;-70
2023/03/03 03:43:39;;;;;;;11.20;10.00;;;19.60;49.20;;;;;;5069981;28;20658;-70
2023/03/03 03:46:05;;;;;;;10.20;9.20;;;19.60;49.20;;;;;;5053121;28;20197;-70
2023/03/03 03:48:32;;;;;;;10.13;9.23;;;19.60;49.20;;;;;;5053487;28;20719;-70
2023/03/03 03:51:00;;;;;;;9.60;8.70;;;19.60;49.20;;;;;;5052970;28;20222;-69
2023/03/03 03:53:27;;;;;;;10.27;9.30;;;19.60;49.20;;;;;;5053171;28;20187;-70
2023/03/03 03:55:53;;;;;;;9.30;8.45;;;19.60;49.20;;;;;;5069375;28;20186;-69
2023/03/03 03:58:19;;;;;;;9.18;8.27;;;19.60;49.20;;;;;;5069677;28;20186;-70
2023/03/03 04:00:54;;;;;;;10.27;9.23;;;19.60;49.20;;;;;;5052906;28;20193;-69
2023/03/03 04:03:21;;;;;;;10.45;9.55;;;19.60;49.20;;;;;;5069450;28;20209;-70
2023/03/03 04:05:49;;;;;;;10.65;9.27;;;19.60;49.20;;;;;;5068910;28;20182;-69
2023/03/03 04:08:15;;;;;;;10.23;9.23;;;19.60;49.20;;;;;;5052744;28;20214;-69
2023/03/03 04:10:42;;;;;;;9.60;8.70;;;19.60;49.20;;;;;;5052805;28;20225;-69
2023/03/03 04:13:08;;;;;;;9.98;9.05;;;19.60;49.20;;;;;;5052799;28;20186;-69
2023/03/03 04:15:35;;;;;;;10.15;9.23;;;19.60;49.20;;;;;;5052696;28;20218;-70
2023/03/03 04:18:02;;;;;;;10.07;9.10;;;19.60;49.20;;;;;;5052627;28;20266;-70
2023/03/03 04:20:29;;;;;;;11.27;10.18;;;19.60;49.20;;;;;;5051907;28;20212;-69
2023/03/03 04:22:56;;;;;;;10.07;9.10;;;19.60;49.30;;;;;;5036889;28;20217;-69
2023/03/03 04:25:22;;;;;;;10.32;9.32;;;19.60;49.30;;;;;;5052464;28;20182;-69
2023/03/03 04:27:51;;;;;;;10.50;9.50;;;19.60;49.30;;;;;;5036006;28;20186;-69
2023/03/03 04:30:19;;;;;;;10.32;9.32;;;19.60;49.30;;;;;;5067652;28;20198;-69
2023/03/03 04:32:48;;;;;;;10.88;9.77;;;19.60;49.30;;;;;;5052453;28;20305;-70
2023/03/03 04:35:16;;;;;;;10.02;9.13;;;19.60;49.30;;;;;;5052680;28;20189;-67
2023/03/03 04:37:43;;;;;;;10.10;9.10;;;19.60;49.30;;;;;;5068646;28;20218;-67
2023/03/03 04:40:10;;;;;;;9.25;8.35;;;19.60;49.30;;;;;;5063352;22;20284;-72
2023/03/03 04:42:37;;;;;;;10.00;9.02;;;19.60;49.30;;;;;;5032945;28;20179;-72
2023/03/03 04:45:04;;;;;;;9.27;8.35;;;19.60;49.30;;;;;;5016273;28;20175;-72
2023/03/03 04:47:32;;;;;;;10.32;9.32;;;19.60;49.30;;;;;;5031985;28;20278;-72
2023/03/03 04:49:58;;;;;;;10.20;9.20;;;19.60;49.90;;;;;;5015139;28;20207;-72
2023/03/03 04:52:24;;;;;;;9.77;8.85;;;19.60;49.30;;;;;;5015366;28;20300;-72
2023/03/03 04:54:50;;;;;;;11.10;10.02;;;19.60;49.30;;;;;;5031918;28;20714;-71
2023/03/03 04:57:16;;;;;;;10.07;9.10;;;19.60;49.30;;;;;;5031866;28;20211;-72
2023/03/03 04:59:43;;;;;;;9.95;8.95;;;19.60;49.30;;;;;;5031312;28;20214;-72
2023/03/03 05:02:09;;;;;;;11.23;10.13;;;19.60;49.30;;;;;;5024508;28;20191;-72
2023/03/03 05:04:35;;;;;;;10.40;9.43;;;19.60;49.30;;;;;;5031778;28;20191;-72
2023/03/03 05:07:01;;;;;;;9.80;8.65;;;19.60;49.30;;;;;;5026789;28;20210;-71
2023/03/03 05:09:27;;;;;;;10.13;9.15;;;19.60;49.30;;;;;;5010249;28;20245;-72
2023/03/03 05:11:54;;;;;;;9.90;8.90;;;19.60;49.30;;;;;;5023194;28;20208;-71
2023/03/03 05:14:19;;;;;;;10.80;9.70;;;19.60;49.30;;;;;;5015185;28;20187;-71
2023/03/03 05:16:45;;;;;;;10.65;9.60;;;19.60;49.30;;;;;;5023084;28;20195;-71
2023/03/03 05:19:11;;;;;;;10.30;9.30;;;19.60;49.30;;;;;;5046862;28;20203;-72
2023/03/03 05:21:41;;;;;;;10.98;9.88;;;19.60;49.30;;;;;;5013855;28;20205;-72
2023/03/03 05:24:12;;;;;;;10.18;9.18;;;19.60;49.30;;;;;;5032080;28;20201;-72
2023/03/03 05:26:39;;;;;;;9.68;8.70;;;19.60;49.30;;;;;;5015596;28;20274;-72
2023/03/03 05:29:06;;;;;;;9.50;8.60;;;19.60;49.30;;;;;;5003953;28;20203;-72
2023/03/03 05:31:31;;;;;;;9.45;8.55;;;19.60;49.30;;;;;;5043857;28;20222;-72
2023/03/03 05:33:57;;;;;;;9.43;8.52;;;19.60;49.30;;;;;;5015458;28;20188;-72
2023/03/03 05:36:23;;;;;;;9.80;8.88;;;19.60;49.40;;;;;;5048446;28;20175;-71
2023/03/03 05:38:49;;;;;;;10.38;9.27;;;19.60;49.40;;;;;;5030578;28;20179;-72
2023/03/03 05:41:15;;;;;;;9.57;8.48;;;19.60;49.40;;;;;;5020157;28;20231;-73
2023/03/03 05:43:41;;;;;;;10.05;9.05;;;19.60;49.40;;;;;;5003981;28;20233;-72
2023/03/03 05:46:07;;;;;;;10.25;9.25;;;19.60;49.40;;;;;;5019768;28;20204;-71
2023/03/03 05:48:33;;;;;;;9.88;8.93;;;19.60;49.40;;;;;;5043655;28;20257;-72
2023/03/03 05:50:59;;;;;;;9.80;8.80;;;19.70;49.50;;;;;;5013306;28;20224;-72
2023/03/03 05:53:27;;;;;;;9.57;8.68;;;19.60;49.40;;;;;;5001867;28;20202;-72
2023/03/03 05:55:53;;;;;;;9.27;8.48;;;19.70;49.40;;;;;;5038550;28;20203;-72
2023/03/03 05:58:19;;;;;;;10.18;9.18;;;19.70;49.50;;;;;;5041274;28;20187;-72
2023/03/03 06:00:45;;;;;;;9.98;8.93;;;19.70;49.50;;;;;;5031580;28;20234;-71
2023/03/03 06:03:10;;;;;;;8.80;8.00;;;19.70;49.50;;;;;;5031445;28;20175;-71
2023/03/03 06:05:36;;;;;;;10.30;8.95;;;19.60;49.40;;;;;;5031258;28;20184;-71
2023/03/03 06:08:02;;;;;;;10.25;9.25;;;19.60;49.40;;;;;;5028490;28;20188;-70
2023/03/03 06:10:28;;;;;;;10.48;9.38;;;19.60;49.40;;;;;;5011522;28;20200;-71
2023/03/03 06:12:58;;;;;;;9.68;8.75;;;19.60;49.40;;;;;;5014235;28;20270;-71
2023/03/03 06:15:24;;;;;;;11.35;10.18;;;19.60;49.40;;;;;;5027158;28;20270;-71
2023/03/03 06:17:50;;;;;;;11.30;10.07;;;19.70;49.40;;;;;;5030441;28;20175;-71
2023/03/03 06:20:16;;;;;;;10.48;9.48;;;19.60;49.40;;;;;;5030518;28;20230;-72
2023/03/03 06:22:42;;;;;;;11.48;9.93;;;19.60;49.40;;;;;;5030535;28;20333;-72
2023/03/03 06:25:08;;;;;;;11.70;10.02;;;19.60;49.40;;;;;;5030496;28;20194;-72
2023/03/03 06:27:34;;;;;;;10.55;9.45;;;19.60;49.30;;;;;;5024815;28;20187;-72
2023/03/03 06:30:00;;;;;;;9.18;8.27;;;19.60;49.30;;;;;;5040585;28;20218;-72
2023/03/03 06:32:26;;;;;;;9.77;8.85;;;19.60;49.30;;;;;;5029712;28;20297;-71
2023/03/03 06:34:52;;;;;;;9.85;8.85;;;19.60;49.30;;;;;;5030279;28;20195;-72
2023/03/03 06:37:18;;;;;;;10.57;8.73;;;19.60;49.30;;;;;;5047820;28;20183;-71
2023/03/03 06:39:43;;;;;;;9.98;8.98;;;19.60;49.30;;;;;;5036881;28;20322;-72
2023/03/03 06:42:09;;;;;;;9.80;8.80;;;19.70;49.40;;;;;;5037564;28;20193;-72
2023/03/03 06:44:35;;;;;;;9.95;8.95;;;19.60;49.30;;;;;;5038061;28;20218;-71
2023/03/03 06:47:01;;;;;;;9.43;8.43;;;19.60;49.20;;;;;;5029704;28;20305;-71
2023/03/03 06:49:27;;;;;;;10.10;9.10;;;19.60;49.30;;;;;;5029614;28;20221;-72
2023/03/03 06:51:53;;;;;;;9.70;8.77;;;19.60;49.30;;;;;;5030153;28;20222;-71
2023/03/03 06:54:28;;;;;;;9.90;8.90;;;19.60;49.20;;;;;;5032672;28;20215;-72
2023/03/03 06:57:01;;;;;;;9.88;8.88;;;19.60;49.20;;;;;;5033810;28;20214;-71
2023/03/03 06:59:27;;;;;;;10.57;9.55;;;19.60;49.20;;;;;;5034158;28;20222;-72
2023/03/03 07:01:53;;;;;;;9.70;8.70;;;19.60;49.20;;;;;;5014044;28;20207;-71
2023/03/03 07:04:38;;;;;;;10.07;9.10;;;19.60;49.20;;;;;;5033932;28;20344;-71
2023/03/03 07:07:23;;;;;;;10.25;9.25;;;19.60;49.20;;;;;;5033615;28;20195;-71
2023/03/03 07:09:54;;;;;;;11.57;9.45;;;19.60;49.20;;;;;;5025879;28;20247;-72
2023/03/03 07:12:25;;;;;;;10.38;9.30;;;19.60;49.20;;;;;;5017697;28;20218;-71
2023/03/03 07:15:23;;;;;;;11.27;9.55;;;19.60;49.20;;;;;;5013720;28;20183;-72
2023/03/03 07:17:56;;;;;;;10.05;8.85;;;19.60;49.20;;;;;;5016975;28;20210;-72
2023/03/03 07:20:35;;;;;;;10.23;9.15;;;19.60;49.30;;;;;;5033694;28;20229;-72
2023/03/03 07:23:20;;;;;;;10.68;9.57;;;19.60;49.30;;;;;;5017630;28;20195;-72
2023/03/03 07:25:45;;;;;;;10.82;9.65;;;19.60;49.30;;;;;;5016964;28;20201;-72
2023/03/03 07:28:32;;;;;;;10.70;9.60;;;19.60;49.20;;;;;;5033574;28;20187;-71
2023/03/03 07:30:58;;;;;;;10.15;9.07;;;19.60;49.30;;;;;;5016962;28;20207;-71
2023/03/03 07:33:36;;;;;;;10.15;9.15;;;19.60;49.30;;;;;;5033785;28;20713;-71
2023/03/03 07:36:21;;;;;;;10.35;9.13;;;19.60;49.30;;;;;;5023194;28;20198;-72
2023/03/03 07:38:57;;;;;;;11.38;9.27;;;19.70;49.40;;;;;;4997318;28;20655;-72
2023/03/03 07:41:23;;;;;;;10.85;9.75;;;19.70;49.30;;;;;;4997129;28;20271;-72
2023/03/03 07:43:53;;;;;;;10.35;9.35;;;19.60;49.20;;;;;;5013523;28;20279;-71
2023/03/03 07:46:33;;;;;;;10.73;9.63;;;19.60;49.20;;;;;;4997147;28;20275;-71
2023/03/03 07:49:00;;;;;;;10.10;9.07;;;19.70;49.30;;;;;;5006822;28;20224;-71
2023/03/03 07:51:40;;;;;;;10.50;9.50;;;19.70;49.30;;;;;;5016490;28;20219;-71
2023/03/03 07:54:39;;;;;;;9.82;8.82;;;19.70;49.40;;;;;;5016559;28;20188;-71
2023/03/03 07:57:11;;;;;;;10.57;9.07;;;19.60;49.20;;;;;;5016905;28;20191;-72
2023/03/03 07:59:52;;;;;;;10.30;9.20;;;19.70;49.30;;;;;;5032911;28;20218;-71
2023/03/03 08:02:44;;;;;;;10.35;9.20;;;19.70;49.30;;;;;;5025481;28;20191;-72
2023/03/03 08:05:36;;;;;;;9.65;8.75;;;19.70;49.30;;;;;;5032576;28;20206;-72
2023/03/03 08:08:08;;;;;;;9.93;8.70;;;19.70;49.30;;;;;;5032438;28;20183;-72
2023/03/03 08:10:48;;;;;;;9.88;8.88;;;19.70;49.30;;;;;;5021336;28;20285;-72
2023/03/03 08:13:34;;;;;;;10.10;9.05;;;19.70;49.40;;;;;;5024543;28;20195;-72
2023/03/03 08:16:09;;;;;;;9.77;8.65;;;19.70;49.30;;;;;;5015958;28;20179;-72
2023/03/03 08:19:00;;;;;;;9.77;8.88;;;19.70;49.30;;;;;;5016129;28;20190;-72
2023/03/03 08:21:26;;;;;;;11.10;9.38;;;19.70;49.30;;;;;;5028722;28;20191;-72
2023/03/03 08:23:53;;;;;;;9.85;8.85;;;19.70;49.30;;;;;;5049445;28;20263;-72
2023/03/03 08:26:20;;;;;;;10.32;9.32;;;19.70;49.30;;;;;;5032613;28;20207;-72
2023/03/03 08:28:46;;;;;;;10.48;9.45;;;19.70;49.30;;;;;;5032382;28;20179;-72
2023/03/03 08:31:12;;;;;;;10.70;9.57;;;19.70;49.30;;;;;;5015678;28;20325;-72
2023/03/03 08:33:39;;;;;;;9.18;8.32;;;19.70;49.90;;;;;;5032525;28;20194;-72
2023/03/03 08:36:06;;;;;;;9.95;8.98;;;19.70;49.30;;;;;;5032317;28;20188;-72
2023/03/03 08:38:33;;;;;;;9.73;8.68;;;19.70;49.30;;;;;;5018640;28;20180;-72
2023/03/03 08:40:59;;;;;;;9.63;8.73;;;19.70;49.30;;;;;;5012289;28;20211;-72
2023/03/03 08:43:25;;;;;;;8.85;7.95;;;19.70;49.20;;;;;;5022393;28;20179;-72
2023/03/03 08:45:56;;;;;;;9.95;8.90;;;19.80;49.30;;;;;;5015561;28;20237;-72
2023/03/03 08:48:22;;;;;;;9.20;8.30;;;19.70;49.30;;;;;;5015894;28;20196;-71
2023/03/03 08:50:48;;;;;;;10.10;9.10;;;19.70;49.20;;;;;;5031995;28;20306;-71
2023/03/03 08:53:16;;;;;;;9.63;8.60;;;19.70;49.20;;;;;;5015637;28;20274;-72
2023/03/03 08:55:42;;;;;;;9.85;8.85;;;19.70;49.80;;;;;;5031742;28;20266;-72
2023/03/03 08:58:08;;;;;;;9.57;8.68;;;19.70;49.20;;;;;;5031796;28;20279;-72
2023/03/03 09:00:35;;;;;;;9.57;8.63;;;19.80;49.20;;;;;;5015371;28;20214;-71
2023/03/03 09:03:01;;;;;;;10.02;9.02;;;19.80;49.20;;;;;;5024344;28;20199;-72
2023/03/03 09:05:28;;;;;;;9.95;8.73;;;19.80;49.30;;;;;;4995576;28;20187;-72
2023/03/03 09:07:54;;;;;;;9.20;8.30;;;19.70;49.20;;;;;;5011518;28;20191;-72
2023/03/03 09:10:29;;;;;;;9.95;9.00;;;19.80;49.30;;;;;;5011989;28;20199;-72
2023/03/03 09:13:00;;;;;;;10.27;9.20;;;19.80;49.30;;;;;;5028605;28;20217;-71
2023/03/03 09:15:36;;;;;;;9.88;8.88;;;19.80;49.30;;;;;;5018791;28;20188;-72
2023/03/03 09:18:18;;;;;;;9.90;8.88;;;19.80;49.30;;;;;;4995236;28;20183;-72
2023/03/03 09:20:53;;;;;;;10.25;9.25;;;19.80;49.20;;;;;;5009959;28;20233;-72
2023/03/03 09:23:40;;;;;;;9.63;8.65;;;19.80;49.20;;;;;;5046525;28;20187;-72
2023/03/03 09:26:43;;;;;;;10.82;9.52;;;19.80;49.20;;;;;;5014881;28;20227;-72
2023/03/03 09:29:23;;;;;;;9.60;8.70;;;19.80;49.20;;;;;;5031082;28;20214;-72
2023/03/03 09:31:51;;;;;;;9.50;8.50;;;19.80;49.20;;;;;;5014778;28;20211;-72
2023/03/03 09:34:35;;;;;;;9.27;8.38;;;19.80;49.20;;;;;;5031267;28;20180;-71
2023/03/03 09:37:20;;;;;;;9.48;8.57;;;19.80;49.30;;;;;;5014540;28;20198;-72
2023/03/03 09:39:51;;;;;;;9.00;8.20;;;19.80;49.20;;;;;;5031051;28;20647;-71
2023/03/03 09:42:35;;;;;;;9.40;8.50;;;19.80;49.20;;;;;;5011627;28;20188;-72
2023/03/03 09:45:32;;;;;;;9.57;8.68;;;19.80;49.20;;;;;;5011806;28;20192;-72
2023/03/03 09:48:36;;;;;;;9.43;8.52;;;19.80;49.20;;;;;;5031020;28;20191;-72
2023/03/03 09:51:30;;;;;;;8.73;7.93;;;19.80;49.20;;;;;;5030861;28;20203;-71
2023/03/03 09:54:08;;;;;;;10.13;9.13;;;19.80;49.20;;;;;;5014586;28;20189;-72
2023/03/03 09:56:45;;;;;;;9.88;8.68;;;19.80;49.20;;;;;;5014469;28;20297;-72
2023/03/03 09:59:38;;;;;;;9.68;8.70;;;19.90;49.30;;;;;;5014192;28;20206;-72
2023/03/03 10:02:25;;;;;;;9.02;8.23;;;19.90;49.30;;;;;;5030593;28;20211;-72
2023/03/03 10:05:15;;;;;;;9.30;8.30;;;19.90;49.30;;;;;;5023511;28;20199;-72
2023/03/03 10:07:53;;;;;;;9.38;8.48;;;19.90;49.30;;;;;;5008528;28;20662;-72
2023/03/03 10:10:50;;;;;;;8.90;8.02;;;19.90;49.30;;;;;;5031080;28;20334;-72
2023/03/03 10:13:30;;;;;;;8.43;7.63;;;19.90;49.30;;;;;;5014111;28;20199;-72
2023/03/03 10:16:31;;;;;;;9.27;8.30;;;19.90;49.40;;;;;;5022957;28;20244;-71
2023/03/03 10:19:18;;;;;;;8.45;7.55;;;19.90;49.30;;;;;;5030932;28;20707;-72
2023/03/03 10:21:57;;;;;;;8.45;7.65;;;19.90;49.30;;;;;;5007984;28;20226;-72
2023/03/03 10:24:31;;;;;;;9.85;8.65;;;19.90;49.30;;;;;;5022771;28;20218;-72
2023/03/03 10:27:31;;;;;;;8.73;7.82;;;19.90;49.30;;;;;;5022380;28;20183;-71
2023/03/03 10:30:35;;;;;;;9.07;8.07;;;20.00;49.40;;;;;;5000067;28;20302;-72
2023/03/03 10:33:20;;;;;;;8.15;7.28;;;19.90;49.40;;;;;;5022062;28;20208;-72
2023/03/03 10:36:25;;;;;;;9.40;7.63;;;19.90;49.30;;;;;;5014093;28;20191;-72
2023/03/03 10:39:12;;;;;;;8.32;7.53;;;20.00;49.50;;;;;;5030349;28;20211;-72
2023/03/03 10:41:52;;;;;;;8.77;7.97;;;20.00;49.50;;;;;;5051739;22;20307;-71
2023/03/03 10:45:05;;;;;;;8.52;7.72;;;20.00;49.80;;;;;;5010570;28;20192;-71
2023/03/03 10:48:10;;;;;;;8.20;7.45;;;20.00;49.50;;;;;;5010750;28;20192;-71
2023/03/03 10:51:09;;;;;;;8.10;7.25;;;20.00;49.40;;;;;;5012292;28;20212;-71
2023/03/03 10:53:58;;;;;;;8.20;7.40;;;20.00;49.40;;;;;;4990939;28;20185;-71
2023/03/03 10:56:45;;;;;;;9.65;8.25;;;20.00;49.50;;;;;;4977598;28;20177;-71
2023/03/03 10:59:32;;;;;;;8.40;7.60;;;20.00;49.40;;;;;;5002535;28;20200;-71
2023/03/03 11:02:09;;;;;;;8.45;7.65;;;20.00;49.40;;;;;;4994303;28;20638;-71
2023/03/03 11:05:34;;;;;;;8.27;7.45;;;20.00;49.40;;;;;;5005783;28;20249;-70
2023/03/03 11:08:42;;;;;;;8.63;7.82;;;20.00;49.40;;;;;;4999240;28;20223;-70
2023/03/03 11:11:44;;;;;;;8.18;7.43;;;20.00;49.40;;;;;;4983602;28;20223;-71
2023/03/03 11:14:47;;;;;;;8.15;7.35;;;20.00;49.40;;;;;;4991493;28;20215;-70
2023/03/03 11:17:27;;;;;;;8.63;7.72;;;20.00;49.40;;;;;;5006806;28;20191;-70
2023/03/03 11:20:11;;;;;;;8.73;7.82;;;20.00;49.60;;;;;;4999724;28;20202;-69
2023/03/03 11:23:16;;;;;;;8.70;7.90;;;20.10;49.60;;;;;;4996355;28;20198;-70
2023/03/03 11:26:06;;;;;;;8.52;7.65;;;20.00;49.50;;;;;;5005047;28;20196;-70
2023/03/03 11:29:14;;;;;;;8.43;7.70;;;20.00;49.50;;;;;;5003498;28;20349;-71
2023/03/03 11:32:16;;;;;;;8.63;7.55;;;20.00;49.50;;;;;;4988808;28;20258;-71
2023/03/03 11:35:18;;;;;;;8.32;7.53;;;20.00;49.40;;;;;;5002939;28;20249;-70
2023/03/03 11:37:57;;;;;;;10.02;8.15;;;20.00;49.50;;;;;;4982527;28;20196;-71
2023/03/03 11:40:40;;;;;;;9.40;8.50;;;20.00;49.50;;;;;;5010649;28;20216;-70
2023/03/03 11:43:31;;;;;;;8.35;7.32;;;20.00;49.40;;;;;;5003597;28;20196;-71
2023/03/03 11:46:08;;;;;;;7.90;7.18;;;20.00;49.40;;;;;;4989762;28;20196;-70
2023/03/03 11:48:41;;;;;;;9.07;8.18;;;20.00;49.40;;;;;;5004146;28;20243;-71
2023/03/03 11:51:22;;;;;;;8.50;7.68;;;20.00;49.40;;;;;;4987033;28;20319;-70
2023/03/03 11:54:16;;;;;;;10.18;8.82;;;20.00;49.40;;;;;;4989595;28;20191;-69
2023/03/03 11:56:45;;;;;;;7.97;7.20;;;20.00;49.40;;;;;;4999543;28;20204;-70
2023/03/03 11:59:32;;;;;;;7.88;7.07;;;20.00;49.40;;;;;;5005823;28;20193;-69
2023/03/03 12:02:15;;;;;;;8.35;7.55;;;20.00;49.30;;;;;;4989469;28;20223;-69
2023/03/03 12:05:31;;;;;;;8.60;7.80;;;20.00;49.40;;;;;;5016850;28;20184;-70
2023/03/03 12:08:40;;;;;;;9.02;8.10;;;20.00;49.40;;;;;;5008682;28;20212;-69
2023/03/03 12:11:24;;;;;;;7.80;7.10;;;20.10;49.50;;;;;;5006060;28;20220;-70
2023/03/03 12:14:20;;;;;;;8.20;7.40;;;20.10;49.80;;;;;;4977988;28;20188;-69
2023/03/03 12:17:02;;;;;;;7.82;7.05;;;20.00;49.30;;;;;;5001900;28;20726;-70
2023/03/03 12:19:55;;;;;;;7.97;7.18;;;20.10;49.40;;;;;;5008565;28;20186;-70
2023/03/03 12:22:35;;;;;;;8.82;7.93;;;20.10;49.40;;;;;;4986672;28;20284;-70
2023/03/03 12:25:41;;;;;;;8.77;7.88;;;20.10;49.40;;;;;;4991718;28;20192;-69
2023/03/03 12:28:36;;;;;;;8.63;7.82;;;20.10;49.40;;;;;;5004767;28;20191;-69
2023/03/03 12:31:22;;;;;;;9.77;7.90;;;20.10;49.40;;;;;;5005968;28;20207;-70
2023/03/03 12:34:09;;;;;;;8.77;7.88;;;20.10;49.40;;;;;;5010206;28;20208;-69
2023/03/03 12:37:05;;;;;;;7.95;7.22;;;20.10;49.40;;;;;;5006639;28;20188;-69
2023/03/03 12:40:02;;;;;;;8.48;7.00;;;20.10;49.40;;;;;;5005265;28;20211;-69
2023/03/03 12:42:37;;;;;;;8.13;7.32;;;20.10;49.40;;;;;;5007136;28;20215;-69
2023/03/03 12:45:48;;;;;;;8.40;7.68;;;20.10;49.40;;;;;;4980908;28;20264;-66
2023/03/03 12:48:44;;;;;;;7.88;7.07;;;20.10;49.40;;;;;;5002810;28;20609;-67
2023/03/03 12:51:34;;;;;;;8.02;7.18;;;20.10;49.40;;;;;;5003887;28;20683;-68
2023/03/03 12:54:48;;;;;;;8.07;7.28;;;20.10;49.30;;;;;;5014138;28;20165;-67
2023/03/03 12:57:20;;;;;;;8.80;7.97;;;20.10;49.40;;;;;;4980940;28;20184;-67
2023/03/03 12:59:58;;;;;;;8.13;7.32;;;20.10;49.30;;;;;;4993826;28;20195;-68
2023/03/03 13:02:45;;;;;;;8.43;7.63;;;20.10;49.40;;;;;;4977231;28;20187;-67
2023/03/03 13:05:39;;;;;;;7.72;7.03;;;20.10;49.30;;;;;;4993203;28;20579;-67
2023/03/03 13:08:16;;;;;;;8.18;7.38;;;20.10;49.30;;;;;;4976545;28;20331;-67
2023/03/03 13:10:57;;;;;;;8.50;7.65;;;20.10;49.40;;;;;;5005938;28;20216;-68
2023/03/03 13:13:58;;;;;;;8.15;7.13;;;20.10;49.40;;;;;;5012668;28;20176;-68
2023/03/03 13:16:43;;;;;;;7.82;7.03;;;20.10;49.40;;;;;;4987697;28;20197;-68
2023/03/03 13:19:25;;;;;;;8.38;7.57;;;20.10;49.40;;;;;;5013431;28;20195;-68
2023/03/03 13:22:12;;;;;;;8.73;7.80;;;20.10;49.40;;;;;;4982456;28;20219;-67
2023/03/03 13:24:56;;;;;;;8.05;7.25;;;20.10;49.40;;;;;;4984267;28;20254;-67